Terminal Aerodrome Forecast
Issued by NWS

Home | Current Version | Previous Version | Text Only | Print | Product List | Glossary On
Versions: 1 2 3 4 5 6 7 8 9 10 11 12 13 14 15 16 17 18 19 20
000
FTUS43 KSGF 290500
TAFBBG
TAF
KBBG 290522Z 2906/3006 00000KT P6SM FEW200
     FM291500 09005KT P6SM SCT120 SCT200
     FM300300 05005KT P6SM BKN070=

USA.gov is the U.S. government's official web portal to all federal, state and local government web resources and services.